< Typhoon 195412 1954 Season Typhoon 195414 >
Typhoon 195413 (KATHY)
General InformationTrack Information on Google Maps || Disaster Info.ResourceGoogle EarthGE AnimationAtom FeedGeoJSON
Detalied Best Track (Time Zone = UTC)
Year Month Day Hour Lat. Long. Pressure (hPa) Wind (kt) Class Image Chart
1954 8 31 18 23.6 143.6 1004 0 2 -- Chart
1954 9 1 00 23.6 143.2 1004 0 9 -- Chart
1954 9 1 06 23.6 142.9 1004 0 9 -- Chart
1954 9 1 12 23.6 142.7 1004 0 9 -- Chart
1954 9 1 18 23.6 142.5 1003 0 9 -- Chart
1954 9 2 00 23.7 142.1 1002 0 2 -- Chart
1954 9 2 06 23.7 141.7 1002 0 2 -- Chart
1954 9 2 12 23.7 141.2 1002 0 2 -- Chart
1954 9 2 18 24.6 139.9 1002 0 2 -- Chart
1954 9 3 00 26.0 140.0 1002 0 2 -- Chart
1954 9 3 06 26.0 141.0 1002 0 2 -- Chart
1954 9 3 12 25.5 139.5 1002 0 2 -- Chart
1954 9 3 18 25.0 139.2 1002 0 2 -- Chart
1954 9 4 00 24.7 138.7 1002 0 2 -- Chart
1954 9 4 06 24.7 138.0 1000 0 2 -- Chart
1954 9 4 12 24.8 137.5 1000 0 2 -- Chart
1954 9 4 18 25.0 137.0 1000 0 2 -- Chart
1954 9 5 00 25.2 136.5 1000 0 2 -- Chart
1954 9 5 06 25.5 136.1 980 0 9 -- Chart
1954 9 5 12 25.8 135.3 970 0 9 -- Chart
1954 9 5 18 26.2 134.7 960 0 9 -- Chart
1954 9 6 00 26.6 134.0 946 0 9 -- Chart
1954 9 6 06 27.1 133.3 940 0 9 -- Chart
1954 9 6 12 27.9 132.8 950 0 9 -- Chart
1954 9 6 18 28.6 132.2 960 0 9 -- Chart
1954 9 7 00 29.6 131.6 960 0 9 -- Chart
1954 9 7 06 31.3 131.1 960 0 9 -- Chart
1954 9 7 12 32.8 131.5 975 0 9 -- Chart
1954 9 7 18 34.8 132.0 994 0 9 -- Chart
1954 9 8 00 37.4 134.0 995 0 9 -- Chart
1954 9 8 06 40.0 136.3 996 0 9 -- Chart
1954 9 8 12 43.0 139.3 995 0 9 -- Chart
1954 9 8 18 46.5 142.2 998 0 6 -- Chart
1954 9 9 00 49.4 143.0 998 0 6 -- Chart
1954 9 9 06 51.0 147.0 998 0 6 -- Chart
1954 9 9 12 52.0 150.0 994 0 6 -- Chart
1954 9 9 18 53.0 153.0 990 0 6 -- Chart
1954 9 10 00 53.0 156.2 990 0 6 -- Chart
1954 9 10 06 52.6 160.4 990 0 6 -- Chart
1954 9 10 12 52.9 163.0 990 0 6 -- Chart
1954 9 10 18 53.2 165.0 990 0 6 -- Chart
1954 9 11 00 53.7 167.0 996 0 6 -- Chart
1954 9 11 06 53.9 168.7 992 0 6 -- Chart
1954 9 11 12 54.2 170.0 992 0 6 -- Chart
1954 9 11 18 54.7 171.5 992 0 6 -- Chart
1954 9 12 00 55.0 173.0 992 0 6 -- Chart
1954 9 12 06 55.3 174.7 996 0 6 -- Chart
1954 9 12 12 55.7 176.2 994 0 6 -- Chart
1954 9 12 18 56.2 177.6 994 0 6 -- Chart
1954 9 13 00 57.0 178.6 992 0 6 -- Chart
1954 9 13 06 57.8 179.0 990 0 6 -- Chart
1954 9 13 12 58.7 179.5 988 0 6 -- Chart
1954 9 13 18 59.4 179.7 986 0 6 -- Chart
1954 9 14 00 60.0 179.8 990 0 6 -- Chart
1954 9 14 06 60.4 179.2 990 0 6 -- Chart
1954 9 14 12 60.8 179.0 990 0 6 -- Chart
1954 9 14 18 61.2 179.3 996 0 6 -- Chart
1954 9 15 00 61.3 180.2 996 0 6 -- Chart
Japan Meteorological Agency Best Track Data | Correction Date : 1991-07-16
< Typhoon 195412 1954 Season Typhoon 195414 >

Help